sensor_id;sensor_type;location;lat;lon;timestamp;pressure;altitude;pressure_sealevel;temperature;humidity
75543;BME280;64129;53.508;10.476;2023-03-26T00:00:50;99666.50;;;7.17;88.50
75543;BME280;64129;53.508;10.476;2023-03-26T00:03:19;99667.63;;;7.08;88.41
75543;BME280;64129;53.508;10.476;2023-03-26T00:05:46;99678.94;;;7.13;88.94
75543;BME280;64129;53.508;10.476;2023-03-26T00:08:14;99672.81;;;7.11;88.92
75543;BME280;64129;53.508;10.476;2023-03-26T00:10:42;99675.34;;;7.16;88.53
75543;BME280;64129;53.508;10.476;2023-03-26T00:13:10;99680.63;;;7.16;88.93
75543;BME280;64129;53.508;10.476;2023-03-26T00:15:37;99683.50;;;7.07;89.50
75543;BME280;64129;53.508;10.476;2023-03-26T00:18:03;99688.91;;;7.02;89.93
75543;BME280;64129;53.508;10.476;2023-03-26T00:20:31;99694.91;;;7.09;89.98
75543;BME280;64129;53.508;10.476;2023-03-26T00:23:00;99690.06;;;7.25;89.25
75543;BME280;64129;53.508;10.476;2023-03-26T00:25:27;99696.22;;;7.25;89.19
75543;BME280;64129;53.508;10.476;2023-03-26T00:27:53;99707.06;;;7.14;89.63
75543;BME280;64129;53.508;10.476;2023-03-26T00:30:20;99706.06;;;7.18;89.33
75543;BME280;64129;53.508;10.476;2023-03-26T00:32:46;99709.47;;;7.24;89.17
75543;BME280;64129;53.508;10.476;2023-03-26T00:35:13;99713.00;;;7.23;88.99
75543;BME280;64129;53.508;10.476;2023-03-26T00:37:40;99715.00;;;7.14;90.01
75543;BME280;64129;53.508;10.476;2023-03-26T00:40:09;99716.56;;;7.22;89.44
75543;BME280;64129;53.508;10.476;2023-03-26T00:42:37;99711.44;;;7.15;89.29
75543;BME280;64129;53.508;10.476;2023-03-26T00:45:05;99717.72;;;7.11;89.47
75543;BME280;64129;53.508;10.476;2023-03-26T00:47:32;99717.50;;;7.19;89.78
75543;BME280;64129;53.508;10.476;2023-03-26T00:49:59;99721.09;;;7.16;89.79
75543;BME280;64129;53.508;10.476;2023-03-26T00:52:25;99715.59;;;7.24;88.55
75543;BME280;64129;53.508;10.476;2023-03-26T00:54:54;99715.69;;;7.21;89.33
75543;BME280;64129;53.508;10.476;2023-03-26T00:57:21;99721.19;;;7.13;89.51
75543;BME280;64129;53.508;10.476;2023-03-26T00:59:54;99718.00;;;7.01;89.37
75543;BME280;64129;53.508;10.476;2023-03-26T01:02:22;99723.72;;;7.16;89.17
75543;BME280;64129;53.508;10.476;2023-03-26T01:04:55;99722.78;;;7.19;88.81
75543;BME280;64129;53.508;10.476;2023-03-26T01:07:25;99725.22;;;7.27;89.01
75543;BME280;64129;53.508;10.476;2023-03-26T01:09:57;99727.94;;;7.24;89.37
75543;BME280;64129;53.508;10.476;2023-03-26T01:12:28;99732.31;;;7.25;89.53
75543;BME280;64129;53.508;10.476;2023-03-26T01:14:59;99732.72;;;7.09;90.05
75543;BME280;64129;53.508;10.476;2023-03-26T01:17:27;99730.13;;;7.08;89.55
75543;BME280;64129;53.508;10.476;2023-03-26T01:22:33;99735.94;;;7.20;89.19
75543;BME280;64129;53.508;10.476;2023-03-26T01:25:02;99742.13;;;7.19;89.08
75543;BME280;64129;53.508;10.476;2023-03-26T01:27:41;99743.22;;;7.12;89.42
75543;BME280;64129;53.508;10.476;2023-03-26T01:30:17;99742.13;;;7.19;89.36
75543;BME280;64129;53.508;10.476;2023-03-26T01:33:02;99746.91;;;7.05;89.42
75543;BME280;64129;53.508;10.476;2023-03-26T01:35:46;99740.53;;;7.14;89.69
75543;BME280;64129;53.508;10.476;2023-03-26T01:40:58;99749.59;;;7.04;89.55
75543;BME280;64129;53.508;10.476;2023-03-26T01:45:59;99755.47;;;7.15;89.44
75543;BME280;64129;53.508;10.476;2023-03-26T01:48:30;99755.25;;;7.23;89.17
75543;BME280;64129;53.508;10.476;2023-03-26T01:50:58;99763.38;;;7.15;89.39
75543;BME280;64129;53.508;10.476;2023-03-26T01:53:25;99768.13;;;7.02;89.33
75543;BME280;64129;53.508;10.476;2023-03-26T01:58:47;99772.81;;;6.89;89.76
75543;BME280;64129;53.508;10.476;2023-03-26T02:01:26;99771.06;;;6.88;88.99
75543;BME280;64129;53.508;10.476;2023-03-26T02:04:14;99775.53;;;6.86;88.68
75543;BME280;64129;53.508;10.476;2023-03-26T02:09:21;99772.25;;;6.77;87.67
75543;BME280;64129;53.508;10.476;2023-03-26T02:11:50;99780.41;;;6.66;88.27
75543;BME280;64129;53.508;10.476;2023-03-26T02:14:17;99780.63;;;6.55;88.17
75543;BME280;64129;53.508;10.476;2023-03-26T02:16:43;99777.16;;;6.53;87.78
75543;BME280;64129;53.508;10.476;2023-03-26T02:19:13;99781.47;;;6.57;87.79
75543;BME280;64129;53.508;10.476;2023-03-26T02:21:47;99784.34;;;6.47;87.48
75543;BME280;64129;53.508;10.476;2023-03-26T02:24:18;99780.16;;;6.38;87.88
75543;BME280;64129;53.508;10.476;2023-03-26T02:26:47;99782.69;;;6.43;87.45
75543;BME280;64129;53.508;10.476;2023-03-26T02:29:14;99783.56;;;6.43;87.86
75543;BME280;64129;53.508;10.476;2023-03-26T02:31:46;99785.38;;;6.41;87.63
75543;BME280;64129;53.508;10.476;2023-03-26T02:34:15;99787.06;;;6.44;87.55
75543;BME280;64129;53.508;10.476;2023-03-26T02:36:48;99785.44;;;6.38;87.56
75543;BME280;64129;53.508;10.476;2023-03-26T02:39:15;99790.09;;;6.27;88.07
75543;BME280;64129;53.508;10.476;2023-03-26T02:41:49;99797.94;;;6.30;87.85
75543;BME280;64129;53.508;10.476;2023-03-26T02:44:16;99799.72;;;6.28;87.65
75543;BME280;64129;53.508;10.476;2023-03-26T02:46:57;99797.16;;;6.25;88.09
75543;BME280;64129;53.508;10.476;2023-03-26T02:49:42;99800.53;;;6.32;87.35
75543;BME280;64129;53.508;10.476;2023-03-26T02:52:14;99789.91;;;6.35;87.41
75543;BME280;64129;53.508;10.476;2023-03-26T02:54:45;99790.03;;;6.30;87.76
75543;BME280;64129;53.508;10.476;2023-03-26T02:57:17;99798.78;;;6.31;87.42
75543;BME280;64129;53.508;10.476;2023-03-26T02:59:43;99800.56;;;6.30;86.98
75543;BME280;64129;53.508;10.476;2023-03-26T03:02:37;99795.44;;;6.22;87.13
75543;BME280;64129;53.508;10.476;2023-03-26T03:05:39;99792.59;;;6.33;86.97
75543;BME280;64129;53.508;10.476;2023-03-26T03:08:27;99791.03;;;6.24;86.99
75543;BME280;64129;53.508;10.476;2023-03-26T03:11:10;99788.47;;;6.20;87.80
75543;BME280;64129;53.508;10.476;2023-03-26T03:13:55;99791.00;;;6.26;86.68
75543;BME280;64129;53.508;10.476;2023-03-26T03:16:25;99792.72;;;6.27;87.15
75543;BME280;64129;53.508;10.476;2023-03-26T03:18:52;99799.53;;;6.37;87.39
75543;BME280;64129;53.508;10.476;2023-03-26T03:21:26;99788.38;;;6.24;86.81
75543;BME280;64129;53.508;10.476;2023-03-26T03:23:56;99789.91;;;6.35;86.65
75543;BME280;64129;53.508;10.476;2023-03-26T03:26:25;99796.50;;;6.14;87.81
75543;BME280;64129;53.508;10.476;2023-03-26T03:28:57;99792.78;;;6.22;86.78
75543;BME280;64129;53.508;10.476;2023-03-26T03:31:25;99789.50;;;6.13;86.49
75543;BME280;64129;53.508;10.476;2023-03-26T03:33:56;99800.88;;;6.15;86.68
75543;BME280;64129;53.508;10.476;2023-03-26T03:36:22;99795.63;;;6.13;87.03
75543;BME280;64129;53.508;10.476;2023-03-26T03:38:59;99795.94;;;6.00;86.56
75543;BME280;64129;53.508;10.476;2023-03-26T03:41:28;99805.19;;;6.19;85.98
75543;BME280;64129;53.508;10.476;2023-03-26T03:43:55;99791.28;;;6.11;86.48
75543;BME280;64129;53.508;10.476;2023-03-26T03:46:27;99801.31;;;5.93;86.69
75543;BME280;64129;53.508;10.476;2023-03-26T03:48:54;99802.22;;;5.92;87.07
75543;BME280;64129;53.508;10.476;2023-03-26T03:51:26;99798.38;;;6.09;86.26
75543;BME280;64129;53.508;10.476;2023-03-26T03:54:01;99796.13;;;5.87;86.80
75543;BME280;64129;53.508;10.476;2023-03-26T03:56:54;99801.09;;;6.04;86.16
75543;BME280;64129;53.508;10.476;2023-03-26T03:59:37;99797.00;;;5.86;87.21
75543;BME280;64129;53.508;10.476;2023-03-26T04:02:06;99801.41;;;5.86;86.85
75543;BME280;64129;53.508;10.476;2023-03-26T04:04:40;99805.75;;;5.88;86.78
75543;BME280;64129;53.508;10.476;2023-03-26T04:07:10;99806.56;;;5.95;86.45
75543;BME280;64129;53.508;10.476;2023-03-26T04:09:55;99803.19;;;5.85;86.59
75543;BME280;64129;53.508;10.476;2023-03-26T04:12:23;99808.50;;;5.82;85.97
75543;BME280;64129;53.508;10.476;2023-03-26T04:14:59;99800.47;;;5.88;86.11
75543;BME280;64129;53.508;10.476;2023-03-26T04:17:26;99802.94;;;6.01;86.18
75543;BME280;64129;53.508;10.476;2023-03-26T04:19:54;99800.44;;;5.94;86.10
75543;BME280;64129;53.508;10.476;2023-03-26T04:22:25;99796.94;;;5.92;86.02
75543;BME280;64129;53.508;10.476;2023-03-26T04:25:04;99797.00;;;5.89;85.32
75543;BME280;64129;53.508;10.476;2023-03-26T04:27:51;99790.00;;;5.85;85.57
75543;BME280;64129;53.508;10.476;2023-03-26T04:30:33;99795.28;;;5.85;85.96
75543;BME280;64129;53.508;10.476;2023-03-26T04:33:10;99787.41;;;5.84;85.35
75543;BME280;64129;53.508;10.476;2023-03-26T04:35:41;99786.59;;;5.80;84.96
75543;BME280;64129;53.508;10.476;2023-03-26T04:38:13;99783.66;;;5.99;84.62
75543;BME280;64129;53.508;10.476;2023-03-26T04:40:44;99785.41;;;5.98;85.07
75543;BME280;64129;53.508;10.476;2023-03-26T04:43:39;99778.53;;;5.89;85.91
75543;BME280;64129;53.508;10.476;2023-03-26T04:46:20;99778.75;;;5.77;85.43
75543;BME280;64129;53.508;10.476;2023-03-26T04:49:02;99787.31;;;5.88;85.30
75543;BME280;64129;53.508;10.476;2023-03-26T04:51:35;99783.88;;;5.85;85.15
75543;BME280;64129;53.508;10.476;2023-03-26T04:54:12;99783.81;;;5.88;85.16
75543;BME280;64129;53.508;10.476;2023-03-26T04:56:57;99783.88;;;5.85;85.40
75543;BME280;64129;53.508;10.476;2023-03-26T04:59:32;99787.03;;;5.59;85.51
75543;BME280;64129;53.508;10.476;2023-03-26T05:02:06;99785.06;;;5.70;84.53
75543;BME280;64129;53.508;10.476;2023-03-26T05:04:44;99781.63;;;5.67;85.21
75543;BME280;64129;53.508;10.476;2023-03-26T05:07:16;99789.47;;;5.70;84.80
75543;BME280;64129;53.508;10.476;2023-03-26T05:09:46;99786.91;;;5.65;84.01
75543;BME280;64129;53.508;10.476;2023-03-26T05:12:14;99790.56;;;5.58;84.96
75543;BME280;64129;53.508;10.476;2023-03-26T05:15:02;99787.84;;;5.62;84.66
75543;BME280;64129;53.508;10.476;2023-03-26T05:17:45;99783.81;;;5.42;84.25
75543;BME280;64129;53.508;10.476;2023-03-26T05:20:22;99785.25;;;5.61;84.25
75543;BME280;64129;53.508;10.476;2023-03-26T05:22:50;99785.31;;;5.55;84.71
75543;BME280;64129;53.508;10.476;2023-03-26T05:25:28;99794.19;;;5.51;84.99
75543;BME280;64129;53.508;10.476;2023-03-26T05:27:56;99786.44;;;5.43;83.84
75543;BME280;64129;53.508;10.476;2023-03-26T05:30:26;99788.09;;;5.47;84.79
75543;BME280;64129;53.508;10.476;2023-03-26T05:32:57;99800.28;;;5.53;84.18
75543;BME280;64129;53.508;10.476;2023-03-26T05:35:29;99795.66;;;5.67;84.36
75543;BME280;64129;53.508;10.476;2023-03-26T05:37:56;99793.44;;;5.44;84.99
75543;BME280;64129;53.508;10.476;2023-03-26T05:40:23;99796.75;;;5.54;84.95
75543;BME280;64129;53.508;10.476;2023-03-26T05:43:01;99801.47;;;5.37;85.08
75543;BME280;64129;53.508;10.476;2023-03-26T05:45:34;99802.19;;;5.45;84.62
75543;BME280;64129;53.508;10.476;2023-03-26T05:48:21;99794.81;;;5.65;84.23
75543;BME280;64129;53.508;10.476;2023-03-26T05:50:49;99799.56;;;5.45;84.43
75543;BME280;64129;53.508;10.476;2023-03-26T05:53:17;99803.03;;;5.47;84.22
75543;BME280;64129;53.508;10.476;2023-03-26T05:56:03;99814.03;;;5.70;84.96
75543;BME280;64129;53.508;10.476;2023-03-26T05:58:35;99813.13;;;5.71;84.76
75543;BME280;64129;53.508;10.476;2023-03-26T06:01:23;99814.75;;;5.78;84.24
75543;BME280;64129;53.508;10.476;2023-03-26T06:04:16;99813.19;;;5.68;83.31
75543;BME280;64129;53.508;10.476;2023-03-26T06:07:09;99819.97;;;5.80;84.66
75543;BME280;64129;53.508;10.476;2023-03-26T06:09:39;99814.81;;;5.75;84.65
75543;BME280;64129;53.508;10.476;2023-03-26T06:12:08;99816.34;;;5.85;83.79
75543;BME280;64129;53.508;10.476;2023-03-26T06:14:36;99812.19;;;5.74;84.14
75543;BME280;64129;53.508;10.476;2023-03-26T06:17:10;99825.56;;;5.64;83.80
75543;BME280;64129;53.508;10.476;2023-03-26T06:19:55;99829.06;;;5.65;84.49
75543;BME280;64129;53.508;10.476;2023-03-26T06:22:31;99830.78;;;5.66;85.94
75543;BME280;64129;53.508;10.476;2023-03-26T06:25:11;99835.00;;;5.75;85.75
75543;BME280;64129;53.508;10.476;2023-03-26T06:27:46;99838.78;;;5.61;84.94
75543;BME280;64129;53.508;10.476;2023-03-26T06:30:35;99842.34;;;5.59;85.21
75543;BME280;64129;53.508;10.476;2023-03-26T06:33:07;99845.97;;;5.50;85.55
75543;BME280;64129;53.508;10.476;2023-03-26T06:35:41;99840.69;;;5.52;84.80
75543;BME280;64129;53.508;10.476;2023-03-26T06:38:11;99847.41;;;5.70;85.31
75543;BME280;64129;53.508;10.476;2023-03-26T06:40:38;99844.97;;;5.59;85.51
75543;BME280;64129;53.508;10.476;2023-03-26T06:43:33;99842.72;;;5.85;84.66
75543;BME280;64129;53.508;10.476;2023-03-26T06:46:14;99846.19;;;5.87;85.53
75543;BME280;64129;53.508;10.476;2023-03-26T06:49:00;99856.06;;;5.76;84.95
75543;BME280;64129;53.508;10.476;2023-03-26T06:51:26;99850.63;;;5.84;85.55
75543;BME280;64129;53.508;10.476;2023-03-26T06:54:13;99854.88;;;5.96;84.76
75543;BME280;64129;53.508;10.476;2023-03-26T06:56:48;99852.16;;;5.99;84.40
75543;BME280;64129;53.508;10.476;2023-03-26T06:59:20;99856.41;;;6.06;83.89
75543;BME280;64129;53.508;10.476;2023-03-26T07:02:05;99849.09;;;6.20;83.39
75543;BME280;64129;53.508;10.476;2023-03-26T07:04:51;99849.47;;;6.02;84.18
75543;BME280;64129;53.508;10.476;2023-03-26T07:07:36;99849.16;;;6.17;82.34
75543;BME280;64129;53.508;10.476;2023-03-26T07:10:16;99855.63;;;6.02;82.35
75543;BME280;64129;53.508;10.476;2023-03-26T07:13:01;99854.63;;;6.08;82.90
75543;BME280;64129;53.508;10.476;2023-03-26T07:15:28;99852.63;;;6.19;81.89
75543;BME280;64129;53.508;10.476;2023-03-26T07:18:17;99850.75;;;6.24;81.96
75543;BME280;64129;53.508;10.476;2023-03-26T07:20:45;99857.41;;;6.43;81.76
75543;BME280;64129;53.508;10.476;2023-03-26T07:23:12;99853.88;;;6.44;82.30
75543;BME280;64129;53.508;10.476;2023-03-26T07:35:52;99855.47;;;6.51;80.46
75543;BME280;64129;53.508;10.476;2023-03-26T07:39:07;99844.38;;;6.76;81.37
75543;BME280;64129;53.508;10.476;2023-03-26T07:42:19;99854.50;;;6.55;78.37
75543;BME280;64129;53.508;10.476;2023-03-26T07:45:18;99852.59;;;6.64;77.43
75543;BME280;64129;53.508;10.476;2023-03-26T07:48:24;99849.53;;;6.42;73.08
75543;BME280;64129;53.508;10.476;2023-03-26T07:51:05;99857.22;;;6.52;74.11
75543;BME280;64129;53.508;10.476;2023-03-26T07:53:47;99847.00;;;6.77;74.93
75543;BME280;64129;53.508;10.476;2023-03-26T07:56:59;99847.84;;;6.78;74.40
75543;BME280;64129;53.508;10.476;2023-03-26T08:00:05;99854.16;;;6.72;69.02
75543;BME280;64129;53.508;10.476;2023-03-26T08:03:22;99841.00;;;7.08;72.88
75543;BME280;64129;53.508;10.476;2023-03-26T08:06:16;99845.28;;;7.13;73.94
75543;BME280;64129;53.508;10.476;2023-03-26T08:09:22;99842.56;;;8.48;72.29
75543;BME280;64129;53.508;10.476;2023-03-26T08:12:19;99843.66;;;7.43;73.90
75543;BME280;64129;53.508;10.476;2023-03-26T08:20:59;99847.53;;;7.30;73.72
75543;BME280;64129;53.508;10.476;2023-03-26T08:23:41;99857.50;;;7.17;72.51
75543;BME280;64129;53.508;10.476;2023-03-26T08:26:31;99850.19;;;7.29;72.42
75543;BME280;64129;53.508;10.476;2023-03-26T08:29:19;99859.47;;;7.45;70.60
75543;BME280;64129;53.508;10.476;2023-03-26T08:31:49;99848.78;;;7.49;72.08
75543;BME280;64129;53.508;10.476;2023-03-26T08:34:16;99851.03;;;7.31;70.32
75543;BME280;64129;53.508;10.476;2023-03-26T08:36:42;99856.97;;;7.39;68.77
75543;BME280;64129;53.508;10.476;2023-03-26T08:39:09;99855.75;;;7.16;66.85
75543;BME280;64129;53.508;10.476;2023-03-26T08:58:08;99863.41;;;7.27;67.14
75543;BME280;64129;53.508;10.476;2023-03-26T09:03:38;99868.09;;;7.51;66.99
75543;BME280;64129;53.508;10.476;2023-03-26T09:09:53;99862.41;;;8.01;63.72
75543;BME280;64129;53.508;10.476;2023-03-26T09:12:51;99851.38;;;8.78;69.59
75543;BME280;64129;53.508;10.476;2023-03-26T09:27:36;99839.53;;;8.90;61.41
75543;BME280;64129;53.508;10.476;2023-03-26T09:30:26;99839.94;;;9.05;56.79
75543;BME280;64129;53.508;10.476;2023-03-26T09:36:00;99851.72;;;9.50;62.14
75543;BME280;64129;53.508;10.476;2023-03-26T09:39:01;99853.34;;;8.99;63.13
75543;BME280;64129;53.508;10.476;2023-03-26T09:42:01;99849.94;;;8.66;57.76
75543;BME280;64129;53.508;10.476;2023-03-26T09:47:55;99850.16;;;10.67;60.65
75543;BME280;64129;53.508;10.476;2023-03-26T09:50:40;99859.13;;;10.16;53.55
75543;BME280;64129;53.508;10.476;2023-03-26T09:55:52;99856.91;;;12.05;56.67
75543;BME280;64129;53.508;10.476;2023-03-26T10:01:17;99862.56;;;11.55;53.46
75543;BME280;64129;53.508;10.476;2023-03-26T10:06:34;99869.00;;;10.84;55.08
75543;BME280;64129;53.508;10.476;2023-03-26T10:09:24;99863.69;;;10.84;51.93
75543;BME280;64129;53.508;10.476;2023-03-26T10:12:08;99866.56;;;11.45;52.87
75543;BME280;64129;53.508;10.476;2023-03-26T10:14:48;99869.28;;;11.22;53.35
75543;BME280;64129;53.508;10.476;2023-03-26T10:17:35;99875.88;;;11.34;51.86
75543;BME280;64129;53.508;10.476;2023-03-26T10:20:18;99876.19;;;11.26;51.49
75543;BME280;64129;53.508;10.476;2023-03-26T10:25:38;99869.41;;;11.19;51.27
75543;BME280;64129;53.508;10.476;2023-03-26T10:28:24;99871.00;;;10.05;53.30
75543;BME280;64129;53.508;10.476;2023-03-26T10:34:02;99865.78;;;10.76;56.45
75543;BME280;64129;53.508;10.476;2023-03-26T10:36:35;99873.63;;;10.56;50.73
75543;BME280;64129;53.508;10.476;2023-03-26T10:44:23;99877.91;;;9.59;53.08
75543;BME280;64129;53.508;10.476;2023-03-26T10:47:10;99874.50;;;9.55;55.03
75543;BME280;64129;53.508;10.476;2023-03-26T10:52:33;99877.81;;;10.13;54.23
75543;BME280;64129;53.508;10.476;2023-03-26T10:55:13;99872.56;;;11.05;52.20
75543;BME280;64129;53.508;10.476;2023-03-26T10:57:49;99875.59;;;11.62;51.81
75543;BME280;64129;53.508;10.476;2023-03-26T11:00:22;99862.69;;;11.52;51.48
75543;BME280;64129;53.508;10.476;2023-03-26T11:03:19;99865.00;;;11.18;52.89
75543;BME280;64129;53.508;10.476;2023-03-26T11:06:15;99870.97;;;10.56;51.91
75543;BME280;64129;53.508;10.476;2023-03-26T11:11:46;99874.38;;;10.83;50.82
75543;BME280;64129;53.508;10.476;2023-03-26T11:14:26;99860.38;;;11.23;48.12
75543;BME280;64129;53.508;10.476;2023-03-26T11:17:21;99861.78;;;11.53;47.15
75543;BME280;64129;53.508;10.476;2023-03-26T11:26:04;99853.00;;;12.53;45.47
75543;BME280;64129;53.508;10.476;2023-03-26T11:28:54;99853.59;;;12.39;44.11
75543;BME280;64129;53.508;10.476;2023-03-26T11:31:44;99850.47;;;12.69;48.96
75543;BME280;64129;53.508;10.476;2023-03-26T11:34:18;99846.59;;;12.76;44.49
75543;BME280;64129;53.508;10.476;2023-03-26T11:36:50;99843.50;;;13.93;49.74
75543;BME280;64129;53.508;10.476;2023-03-26T11:39:24;99841.91;;;13.72;45.71
75543;BME280;64129;53.508;10.476;2023-03-26T11:42:11;99843.34;;;13.07;41.26
75543;BME280;64129;53.508;10.476;2023-03-26T11:44:53;99847.06;;;13.40;42.28
75543;BME280;64129;53.508;10.476;2023-03-26T11:47:25;99849.09;;;13.35;43.55
75543;BME280;64129;53.508;10.476;2023-03-26T11:49:57;99842.78;;;13.19;41.69
75543;BME280;64129;53.508;10.476;2023-03-26T11:52:26;99843.25;;;13.81;44.47
75543;BME280;64129;53.508;10.476;2023-03-26T11:54:52;99847.72;;;13.80;42.65
75543;BME280;64129;53.508;10.476;2023-03-26T11:57:26;99835.94;;;13.84;41.35
75543;BME280;64129;53.508;10.476;2023-03-26T12:00:00;99834.59;;;14.76;45.82
75543;BME280;64129;53.508;10.476;2023-03-26T12:02:38;99840.50;;;14.50;46.52
75543;BME280;64129;53.508;10.476;2023-03-26T12:07:44;99837.56;;;13.35;40.71
75543;BME280;64129;53.508;10.476;2023-03-26T12:10:38;99838.41;;;13.35;42.26
75543;BME280;64129;53.508;10.476;2023-03-26T12:16:00;99837.66;;;13.85;40.51
75543;BME280;64129;53.508;10.476;2023-03-26T12:18:29;99836.31;;;14.61;41.90
75543;BME280;64129;53.508;10.476;2023-03-26T12:21:10;99835.00;;;14.02;39.70
75543;BME280;64129;53.508;10.476;2023-03-26T12:26:47;99841.59;;;15.10;39.34
75543;BME280;64129;53.508;10.476;2023-03-26T12:29:21;99830.72;;;15.13;38.80
75543;BME280;64129;53.508;10.476;2023-03-26T12:31:54;99831.06;;;13.75;41.41
75543;BME280;64129;53.508;10.476;2023-03-26T12:34:27;99838.44;;;13.87;39.43
75543;BME280;64129;53.508;10.476;2023-03-26T12:36:56;99840.03;;;12.64;42.21
75543;BME280;64129;53.508;10.476;2023-03-26T12:42:00;99848.81;;;14.11;39.42
75543;BME280;64129;53.508;10.476;2023-03-26T12:44:33;99839.06;;;13.40;38.37
75543;BME280;64129;53.508;10.476;2023-03-26T12:47:29;99838.34;;;14.56;38.81
75543;BME280;64129;53.508;10.476;2023-03-26T12:49:57;99833.97;;;15.50;36.72
75543;BME280;64129;53.508;10.476;2023-03-26T12:55:47;99823.50;;;16.35;39.58
75543;BME280;64129;53.508;10.476;2023-03-26T13:06:32;99820.72;;;16.79;41.24
75543;BME280;64129;53.508;10.476;2023-03-26T13:09:14;99825.75;;;16.13;34.04
75543;BME280;64129;53.508;10.476;2023-03-26T13:14:56;99826.81;;;15.66;36.06
75543;BME280;64129;53.508;10.476;2023-03-26T13:17:37;99826.22;;;15.61;34.60
75543;BME280;64129;53.508;10.476;2023-03-26T13:20:12;99817.75;;;16.41;33.64
75543;BME280;64129;53.508;10.476;2023-03-26T13:23:00;99813.38;;;17.37;35.56
75543;BME280;64129;53.508;10.476;2023-03-26T13:25:49;99822.13;;;16.85;34.82
75543;BME280;64129;53.508;10.476;2023-03-26T13:31:02;99808.72;;;16.85;33.58
75543;BME280;64129;53.508;10.476;2023-03-26T13:46:46;99805.25;;;17.51;35.23
75543;BME280;64129;53.508;10.476;2023-03-26T13:49:18;99811.41;;;16.85;34.07
75543;BME280;64129;53.508;10.476;2023-03-26T13:51:50;99802.59;;;16.54;33.59
75543;BME280;64129;53.508;10.476;2023-03-26T13:55:06;99809.78;;;16.26;34.56
75543;BME280;64129;53.508;10.476;2023-03-26T13:57:51;99813.59;;;16.64;33.38
75543;BME280;64129;53.508;10.476;2023-03-26T14:00:25;99811.50;;;15.68;34.62
75543;BME280;64129;53.508;10.476;2023-03-26T14:03:12;99811.41;;;15.08;35.59
75543;BME280;64129;53.508;10.476;2023-03-26T14:05:45;99815.00;;;15.39;38.49
75543;BME280;64129;53.508;10.476;2023-03-26T14:08:36;99809.03;;;14.22;38.17
75543;BME280;64129;53.508;10.476;2023-03-26T14:11:12;99816.94;;;15.05;38.88
75543;BME280;64129;53.508;10.476;2023-03-26T14:13:48;99810.84;;;16.37;36.31
75543;BME280;64129;53.508;10.476;2023-03-26T14:16:34;99810.81;;;15.49;35.23
75543;BME280;64129;53.508;10.476;2023-03-26T14:19:41;99810.03;;;14.70;37.08
75543;BME280;64129;53.508;10.476;2023-03-26T14:22:15;99818.03;;;14.36;37.47
75543;BME280;64129;53.508;10.476;2023-03-26T14:27:42;99823.97;;;15.38;35.74
75543;BME280;64129;53.508;10.476;2023-03-26T14:30:41;99826.06;;;15.33;36.48
75543;BME280;64129;53.508;10.476;2023-03-26T14:33:49;99824.84;;;15.22;37.47
75543;BME280;64129;53.508;10.476;2023-03-26T14:36:33;99830.00;;;14.47;37.15
75543;BME280;64129;53.508;10.476;2023-03-26T14:42:07;99836.53;;;13.37;38.31
75543;BME280;64129;53.508;10.476;2023-03-26T14:47:44;99828.44;;;13.03;39.92
75543;BME280;64129;53.508;10.476;2023-03-26T14:52:50;99823.63;;;12.73;40.35
75543;BME280;64129;53.508;10.476;2023-03-26T14:55:58;99820.13;;;12.34;40.79
75543;BME280;64129;53.508;10.476;2023-03-26T15:05:32;99828.81;;;12.95;39.51
75543;BME280;64129;53.508;10.476;2023-03-26T15:16:05;99833.09;;;12.41;42.26
75543;BME280;64129;53.508;10.476;2023-03-26T15:19:02;99836.00;;;12.74;41.57
75543;BME280;64129;53.508;10.476;2023-03-26T15:22:07;99825.88;;;14.07;40.65
75543;BME280;64129;53.508;10.476;2023-03-26T15:36:03;99834.16;;;14.84;37.64
75543;BME280;64129;53.508;10.476;2023-03-26T15:44:36;99825.09;;;14.04;39.25
75543;BME280;64129;53.508;10.476;2023-03-26T15:47:41;99835.28;;;13.27;41.29
75543;BME280;64129;53.508;10.476;2023-03-26T15:50:29;99838.44;;;12.98;41.16
75543;BME280;64129;53.508;10.476;2023-03-26T16:01:41;99842.97;;;13.51;38.52
75543;BME280;64129;53.508;10.476;2023-03-26T16:04:37;99837.25;;;14.27;38.02
75543;BME280;64129;53.508;10.476;2023-03-26T16:09:50;99850.63;;;13.58;39.84
75543;BME280;64129;53.508;10.476;2023-03-26T16:15:39;99854.75;;;12.13;42.44
75543;BME280;64129;53.508;10.476;2023-03-26T16:21:03;99853.28;;;10.78;43.61
75543;BME280;64129;53.508;10.476;2023-03-26T16:23:33;99857.75;;;10.78;43.23
75543;BME280;64129;53.508;10.476;2023-03-26T16:26:14;99859.91;;;11.55;45.57
75543;BME280;64129;53.508;10.476;2023-03-26T16:34:41;99872.19;;;11.16;42.55
75543;BME280;64129;53.508;10.476;2023-03-26T16:36:44;99876.72;;;11.34;43.26
75543;BME280;64129;53.508;10.476;2023-03-26T16:39:23;99872.09;;;11.39;44.86
75543;BME280;64129;53.508;10.476;2023-03-26T16:41:54;99872.66;;;11.04;44.35
75543;BME280;64129;53.508;10.476;2023-03-26T16:44:49;99875.53;;;10.52;45.38
75543;BME280;64129;53.508;10.476;2023-03-26T16:48:08;99879.94;;;10.28;46.30
75543;BME280;64129;53.508;10.476;2023-03-26T16:50:43;99874.28;;;10.38;45.46
75543;BME280;64129;53.508;10.476;2023-03-26T16:53:59;99878.38;;;9.96;47.07
75543;BME280;64129;53.508;10.476;2023-03-26T16:56:47;99876.44;;;9.77;47.72
75543;BME280;64129;53.508;10.476;2023-03-26T17:04:46;99890.66;;;9.99;48.90
75543;BME280;64129;53.508;10.476;2023-03-26T17:07:31;99894.66;;;10.12;48.40
75543;BME280;64129;53.508;10.476;2023-03-26T17:10:18;99900.03;;;9.84;47.94
75543;BME280;64129;53.508;10.476;2023-03-26T17:12:57;99905.88;;;9.94;49.97
75543;BME280;64129;53.508;10.476;2023-03-26T17:15:35;99908.09;;;9.81;49.13
75543;BME280;64129;53.508;10.476;2023-03-26T17:21:01;99907.78;;;9.64;48.50
75543;BME280;64129;53.508;10.476;2023-03-26T17:29:25;99904.88;;;10.94;55.77
75543;BME280;64129;53.508;10.476;2023-03-26T17:37:09;99923.22;;;9.51;51.43
75543;BME280;64129;53.508;10.476;2023-03-26T17:42:15;99930.94;;;9.31;51.03
75543;BME280;64129;53.508;10.476;2023-03-26T17:44:47;99933.44;;;9.35;51.64